createdAt,value
2023-04-02T00:02:30.109Z,0.90
2023-04-02T00:07:33.012Z,1.02
2023-04-02T00:12:34.513Z,1.10
2023-04-02T00:17:36.005Z,1.20
2023-04-02T00:22:44.261Z,1.10
2023-04-02T00:27:46.185Z,1.10
2023-04-02T00:32:47.884Z,1.67
2023-04-02T00:37:51.223Z,1.27
2023-04-02T00:42:54.314Z,0.98
2023-04-02T00:47:56.933Z,1.00
2023-04-02T00:53:04.391Z,1.30
2023-04-02T00:58:19.000Z,1.20
2023-04-02T01:03:33.105Z,1.13
2023-04-02T01:08:46.518Z,1.23
2023-04-02T01:13:58.183Z,1.20
2023-04-02T01:19:08.061Z,1.50
2023-04-02T01:24:12.743Z,1.58
2023-04-02T01:29:18.503Z,1.58
2023-04-02T01:34:25.127Z,1.60
2023-04-02T01:39:41.127Z,1.63
2023-04-02T01:44:49.278Z,1.70
2023-04-02T01:49:54.941Z,2.03
2023-04-02T01:54:56.517Z,2.03
2023-04-02T02:00:02.052Z,2.40
2023-04-02T02:05:04.333Z,2.28
2023-04-02T02:10:07.015Z,2.55
2023-04-02T02:15:15.594Z,2.70
2023-04-02T02:20:17.734Z,2.40
2023-04-02T02:25:22.711Z,2.50
2023-04-02T02:30:30.422Z,1.90
2023-04-02T02:40:40.611Z,1.70
2023-04-02T02:45:45.868Z,1.92
2023-04-02T02:50:47.843Z,1.92
2023-04-02T02:55:52.655Z,1.98
2023-04-02T03:00:55.658Z,1.70
2023-04-02T03:06:02.211Z,1.70
2023-04-02T03:11:08.825Z,2.10
2023-04-02T03:16:16.332Z,1.80
2023-04-02T03:21:26.043Z,1.70
2023-04-02T03:26:33.899Z,1.70
2023-04-02T03:31:39.766Z,2.50
2023-04-02T03:36:47.537Z,2.70
2023-04-02T03:52:26.831Z,5.38
2023-04-02T03:57:33.292Z,6.60
2023-04-02T04:02:42.147Z,7.20
2023-04-02T04:07:44.414Z,7.25
2023-04-02T04:12:48.243Z,7.85
2023-04-02T04:17:58.937Z,7.78
2023-04-02T04:23:10.542Z,9.60
2023-04-02T04:28:19.722Z,8.60
2023-04-02T04:33:26.006Z,8.55
2023-04-02T04:38:32.410Z,7.70
2023-04-02T04:43:43.930Z,8.25
2023-04-02T04:48:54.298Z,8.38
2023-04-02T04:53:55.880Z,8.35
2023-04-02T04:59:02.949Z,8.32
2023-04-02T05:04:14.580Z,7.50
2023-04-02T05:09:21.840Z,6.63
2023-04-02T05:14:31.198Z,7.13
2023-04-02T05:19:39.516Z,7.22
2023-04-02T05:24:51.279Z,7.82
2023-04-02T05:29:59.864Z,7.43
2023-04-02T05:35:03.511Z,7.03
2023-04-02T05:40:13.486Z,6.20
2023-04-02T05:45:23.164Z,6.65
2023-04-02T05:50:28.376Z,6.13
2023-04-02T05:55:39.452Z,5.63
2023-04-02T06:01:02.742Z,5.80
2023-04-02T06:06:14.801Z,4.82
2023-04-02T06:11:22.488Z,4.60
2023-04-02T06:21:29.171Z,3.67
2023-04-02T06:26:34.542Z,3.95
2023-04-02T06:31:41.978Z,3.85
2023-04-02T06:36:46.302Z,3.55
2023-04-02T06:41:56.133Z,3.50
2023-04-02T06:47:00.204Z,3.50
2023-04-02T06:52:06.221Z,3.20
2023-04-02T06:57:08.851Z,3.53
2023-04-02T07:02:25.527Z,3.00
2023-04-02T07:07:28.493Z,3.65
2023-04-02T07:12:30.013Z,4.85
2023-04-02T07:17:31.518Z,4.70
2023-04-02T07:22:34.316Z,4.25
2023-04-02T07:27:35.825Z,3.80
2023-04-02T07:32:37.294Z,4.90
2023-04-02T07:37:41.205Z,12.23
2023-04-02T07:42:42.748Z,3.13
2023-04-02T07:47:44.521Z,3.60
2023-04-02T07:52:47.445Z,2.45
2023-04-02T07:57:51.097Z,2.70
2023-04-02T08:02:53.191Z,2.42
2023-04-02T08:07:57.016Z,3.53
2023-04-02T08:12:58.572Z,2.65
2023-04-02T08:18:00.047Z,2.20
2023-04-02T08:23:03.613Z,4.85
2023-04-02T08:28:05.102Z,3.10
2023-04-02T08:33:07.055Z,2.70
2023-04-02T08:38:13.316Z,2.28
2023-04-02T08:43:43.932Z,2.72
2023-04-02T08:48:51.237Z,2.60
2023-04-02T08:53:59.734Z,3.50
2023-04-02T08:59:08.092Z,2.38
2023-04-02T09:04:17.153Z,1.77
2023-04-02T09:09:21.619Z,1.50
2023-04-02T09:14:29.468Z,2.20
2023-04-02T09:19:36.007Z,0.80
2023-04-02T09:24:38.791Z,0.70
2023-04-02T09:29:45.284Z,0.60
2023-04-02T09:34:46.861Z,0.80
2023-04-02T09:39:49.760Z,0.50
2023-04-02T09:44:52.200Z,0.60
2023-04-02T09:49:53.706Z,0.70
2023-04-02T09:55:18.855Z,0.80
2023-04-02T10:00:31.263Z,0.60
2023-04-02T10:05:40.052Z,0.80
2023-04-02T10:10:48.887Z,0.65
2023-04-02T10:15:57.155Z,0.85
2023-04-02T10:21:02.220Z,0.70
2023-04-02T10:26:22.067Z,0.60
2023-04-02T10:31:28.461Z,0.60
2023-04-02T10:36:48.219Z,0.52
2023-04-02T10:41:56.253Z,0.60
2023-04-02T10:47:09.111Z,0.60
2023-04-02T10:52:14.659Z,0.63
2023-04-02T10:57:30.634Z,0.70
2023-04-02T11:02:37.693Z,0.70
2023-04-02T11:07:52.969Z,0.85
2023-04-02T11:13:02.189Z,0.60
2023-04-02T11:18:04.002Z,0.80
2023-04-02T11:23:10.621Z,0.80
2023-04-02T11:28:25.637Z,1.30
2023-04-02T11:33:43.404Z,0.70
2023-04-02T11:38:52.507Z,0.80
2023-04-02T11:44:05.095Z,0.80
2023-04-02T11:49:35.286Z,0.80
2023-04-02T11:54:37.832Z,0.60
2023-04-02T11:59:50.317Z,0.60
2023-04-02T12:05:04.603Z,0.70
2023-04-02T12:10:17.086Z,0.98
2023-04-02T12:15:42.323Z,0.50
2023-04-02T12:20:49.870Z,0.80
2023-04-02T12:25:56.459Z,0.80
2023-04-02T12:31:13.096Z,0.50
2023-04-02T12:36:20.036Z,0.50
2023-04-02T12:41:24.451Z,0.80
2023-04-02T12:46:28.541Z,0.93
2023-04-02T12:51:30.234Z,0.70
2023-04-02T12:56:31.848Z,0.80
2023-04-02T13:01:34.703Z,0.65
2023-04-02T13:06:37.027Z,0.70
2023-04-02T13:11:41.229Z,0.70
2023-04-02T13:16:44.260Z,0.60
2023-04-02T13:21:45.889Z,0.63
2023-04-02T13:26:48.553Z,0.80
2023-04-02T13:31:53.343Z,0.57
2023-04-02T13:36:55.273Z,0.80
2023-04-02T13:41:58.600Z,0.60
2023-04-02T13:47:01.836Z,0.75
2023-04-02T13:52:03.967Z,0.73
2023-04-02T13:57:05.886Z,0.88
2023-04-02T14:02:13.783Z,1.00
2023-04-02T14:07:24.586Z,0.77
2023-04-02T14:12:35.814Z,0.70
2023-04-02T14:17:52.640Z,0.57
2023-04-02T14:23:10.945Z,0.85
2023-04-02T14:28:20.250Z,0.90
2023-04-02T14:33:34.921Z,0.80
2023-04-02T14:38:42.070Z,0.82
2023-04-02T14:43:48.894Z,0.80
2023-04-02T14:48:56.800Z,0.90
2023-04-02T14:54:08.468Z,0.80
2023-04-02T14:59:23.366Z,0.70
2023-04-02T15:04:32.145Z,1.10
2023-04-02T15:09:37.096Z,0.80
2023-04-02T15:14:43.486Z,0.70
2023-04-02T15:19:46.300Z,0.70
2023-04-02T15:24:58.171Z,0.80
2023-04-02T15:30:06.452Z,0.47
2023-04-02T15:35:30.068Z,0.50
2023-04-02T15:40:53.441Z,0.40
2023-04-02T15:46:10.437Z,0.50
2023-04-02T15:51:25.187Z,0.50
2023-04-02T15:56:34.625Z,0.70
2023-04-02T16:01:44.171Z,0.80
2023-04-02T16:07:01.191Z,1.00
2023-04-02T16:12:14.825Z,1.10
2023-04-02T16:17:25.271Z,1.13
2023-04-02T16:22:30.412Z,0.88
2023-04-02T16:27:35.233Z,1.30
2023-04-02T16:32:50.149Z,0.90
2023-04-02T16:37:58.100Z,1.45
2023-04-02T16:43:12.256Z,2.33
2023-04-02T16:48:20.451Z,5.05
2023-04-02T16:53:30.859Z,3.30
2023-04-02T16:58:43.855Z,4.60
2023-04-02T17:04:00.712Z,2.85
2023-04-02T17:09:13.739Z,6.13
2023-04-02T17:14:24.602Z,7.13
2023-04-02T17:19:27.322Z,3.97
2023-04-02T17:24:35.411Z,6.70
2023-04-02T17:29:40.496Z,5.68
2023-04-02T17:34:41.977Z,4.40
2023-04-02T17:39:52.180Z,6.57
2023-04-02T17:45:02.873Z,8.15
2023-04-02T17:50:29.116Z,5.18
2023-04-02T17:55:41.858Z,3.88
2023-04-02T18:00:57.679Z,5.95
2023-04-02T18:06:03.481Z,7.93
2023-04-02T18:11:13.478Z,6.82
2023-04-02T18:16:30.077Z,6.15
2023-04-02T18:21:39.231Z,6.00
2023-04-02T18:26:51.807Z,6.55
2023-04-02T18:32:03.938Z,4.28
2023-04-02T18:37:18.888Z,4.22
2023-04-02T18:42:37.406Z,3.88
2023-04-02T18:47:47.730Z,4.32
2023-04-02T18:52:50.568Z,4.75
2023-04-02T18:57:58.946Z,5.90
2023-04-02T19:03:06.875Z,5.65
2023-04-02T19:08:13.846Z,8.68
2023-04-02T19:13:19.029Z,13.50
2023-04-02T19:18:35.675Z,8.63
2023-04-02T19:23:52.462Z,9.32
2023-04-02T19:29:05.399Z,10.82
2023-04-02T19:34:15.400Z,11.90
2023-04-02T19:39:43.743Z,12.05
2023-04-02T19:44:50.089Z,10.82
2023-04-02T19:49:51.679Z,9.85
2023-04-02T19:54:53.163Z,13.57
2023-04-02T19:59:56.012Z,14.05
2023-04-02T20:04:57.558Z,10.27
2023-04-02T20:09:59.099Z,7.72
2023-04-02T20:15:02.666Z,7.57
2023-04-02T20:20:04.755Z,9.73
2023-04-02T20:25:07.380Z,12.48
2023-04-02T20:30:11.173Z,8.15
2023-04-02T20:35:12.754Z,11.15
2023-04-02T20:40:14.421Z,8.95
2023-04-02T20:45:17.280Z,9.70
2023-04-02T20:50:19.271Z,7.38
2023-04-02T20:55:20.726Z,9.90
2023-04-02T21:00:23.536Z,7.28
2023-04-02T21:05:25.006Z,12.15
2023-04-02T21:10:26.460Z,12.02
2023-04-02T21:15:29.267Z,8.18
2023-04-02T21:20:30.754Z,7.53
2023-04-02T21:25:32.230Z,10.95
2023-04-02T21:30:35.034Z,11.55
2023-04-02T21:35:36.697Z,7.75
2023-04-02T21:40:38.358Z,8.48
2023-04-02T21:45:41.204Z,6.20
2023-04-02T21:50:42.725Z,9.55
2023-04-02T21:55:44.585Z,8.68
2023-04-02T22:00:47.413Z,6.65
2023-04-02T22:05:50.199Z,8.90
2023-04-02T22:10:51.663Z,5.63
2023-04-02T22:16:00.047Z,5.47
2023-04-02T22:21:01.872Z,6.55
2023-04-02T22:26:04.900Z,7.25
2023-04-02T22:31:11.264Z,7.32
2023-04-02T22:36:14.014Z,5.97
2023-04-02T22:41:17.331Z,5.70
2023-04-02T22:46:20.680Z,8.63
2023-04-02T22:51:23.259Z,10.02
2023-04-02T22:56:26.645Z,9.45
2023-04-02T23:01:32.443Z,7.00
2023-04-02T23:06:33.984Z,8.20
2023-04-02T23:11:35.446Z,10.23
2023-04-02T23:16:38.317Z,5.95
2023-04-02T23:21:39.801Z,7.95
2023-04-02T23:26:41.253Z,7.40
2023-04-02T23:31:44.705Z,9.20
2023-04-02T23:36:46.188Z,5.65
2023-04-02T23:41:47.648Z,6.75
2023-04-02T23:46:50.826Z,4.57
2023-04-02T23:51:52.380Z,7.68
2023-04-02T23:56:54.364Z,7.63
